sensor_id;sensor_type;location;lat;lon;timestamp;pressure;altitude;pressure_sealevel;temperature;humidity
41264;BME280;26998;48.714;9.414;2023-04-19T00:02:22;99790.72;;;9.35;100.00
41264;BME280;26998;48.714;9.414;2023-04-19T00:04:49;99792.22;;;9.38;100.00
41264;BME280;26998;48.714;9.414;2023-04-19T00:07:15;99774.19;;;9.40;100.00
41264;BME280;26998;48.714;9.414;2023-04-19T00:09:42;99779.88;;;9.37;100.00
41264;BME280;26998;48.714;9.414;2023-04-19T00:12:08;99785.53;;;9.34;100.00
41264;BME280;26998;48.714;9.414;2023-04-19T00:14:34;99783.91;;;9.41;100.00
41264;BME280;26998;48.714;9.414;2023-04-19T00:17:01;99793.56;;;9.25;100.00
41264;BME280;26998;48.714;9.414;2023-04-19T00:19:27;99787.03;;;9.36;100.00
41264;BME280;26998;48.714;9.414;2023-04-19T00:21:54;99773.19;;;9.49;100.00
41264;BME280;26998;48.714;9.414;2023-04-19T00:24:20;99752.69;;;9.49;100.00
41264;BME280;26998;48.714;9.414;2023-04-19T00:26:47;99767.38;;;9.37;100.00
41264;BME280;26998;48.714;9.414;2023-04-19T00:29:13;99783.88;;;9.33;100.00
41264;BME280;26998;48.714;9.414;2023-04-19T00:31:40;99780.72;;;9.29;100.00
41264;BME280;26998;48.714;9.414;2023-04-19T00:34:06;99781.56;;;9.30;100.00
41264;BME280;26998;48.714;9.414;2023-04-19T00:36:33;99791.41;;;9.29;100.00
41264;BME280;26998;48.714;9.414;2023-04-19T00:38:59;99792.38;;;9.28;100.00
41264;BME280;26998;48.714;9.414;2023-04-19T00:41:25;99778.06;;;9.29;100.00
41264;BME280;26998;48.714;9.414;2023-04-19T00:43:52;99789.88;;;9.18;100.00
41264;BME280;26998;48.714;9.414;2023-04-19T00:46:18;99799.22;;;9.22;100.00
41264;BME280;26998;48.714;9.414;2023-04-19T00:48:46;99785.72;;;9.24;100.00
41264;BME280;26998;48.714;9.414;2023-04-19T00:51:13;99784.69;;;9.25;100.00
41264;BME280;26998;48.714;9.414;2023-04-19T00:53:40;99786.88;;;9.21;100.00
41264;BME280;26998;48.714;9.414;2023-04-19T00:56:07;99787.03;;;9.28;100.00
41264;BME280;26998;48.714;9.414;2023-04-19T00:58:36;99743.34;;;9.37;100.00
41264;BME280;26998;48.714;9.414;2023-04-19T01:01:03;99764.38;;;9.24;100.00
41264;BME280;26998;48.714;9.414;2023-04-19T01:03:29;99770.22;;;9.19;100.00
41264;BME280;26998;48.714;9.414;2023-04-19T01:05:56;99778.06;;;9.13;100.00
41264;BME280;26998;48.714;9.414;2023-04-19T01:08:23;99789.56;;;9.13;100.00
41264;BME280;26998;48.714;9.414;2023-04-19T01:10:49;99796.38;;;9.08;100.00
41264;BME280;26998;48.714;9.414;2023-04-19T01:13:16;99778.72;;;9.07;100.00
41264;BME280;26998;48.714;9.414;2023-04-19T01:15:43;99783.53;;;9.11;100.00
41264;BME280;26998;48.714;9.414;2023-04-19T01:18:09;99781.22;;;9.08;100.00
41264;BME280;26998;48.714;9.414;2023-04-19T01:20:37;99790.69;;;9.02;100.00
41264;BME280;26998;48.714;9.414;2023-04-19T01:23:03;99796.22;;;9.01;100.00
41264;BME280;26998;48.714;9.414;2023-04-19T01:25:30;99781.72;;;9.12;100.00
41264;BME280;26998;48.714;9.414;2023-04-19T01:27:56;99789.72;;;9.04;100.00
41264;BME280;26998;48.714;9.414;2023-04-19T01:30:22;99795.06;;;9.04;100.00
41264;BME280;26998;48.714;9.414;2023-04-19T01:32:49;99778.88;;;9.21;100.00
41264;BME280;26998;48.714;9.414;2023-04-19T01:35:15;99773.53;;;9.05;100.00
41264;BME280;26998;48.714;9.414;2023-04-19T01:37:42;99766.22;;;9.07;100.00
41264;BME280;26998;48.714;9.414;2023-04-19T01:40:09;99774.69;;;9.02;100.00
41264;BME280;26998;48.714;9.414;2023-04-19T01:42:36;99774.06;;;9.00;100.00
41264;BME280;26998;48.714;9.414;2023-04-19T01:45:03;99775.03;;;8.99;100.00
41264;BME280;26998;48.714;9.414;2023-04-19T01:47:29;99782.19;;;8.99;100.00
41264;BME280;26998;48.714;9.414;2023-04-19T01:49:58;99765.88;;;9.02;100.00
41264;BME280;26998;48.714;9.414;2023-04-19T01:52:25;99783.53;;;8.95;100.00
41264;BME280;26998;48.714;9.414;2023-04-19T01:54:51;99787.72;;;8.97;100.00
41264;BME280;26998;48.714;9.414;2023-04-19T01:57:18;99783.53;;;8.95;100.00
41264;BME280;26998;48.714;9.414;2023-04-19T01:59:44;99792.53;;;8.86;100.00
41264;BME280;26998;48.714;9.414;2023-04-19T02:02:11;99800.34;;;8.87;100.00
41264;BME280;26998;48.714;9.414;2023-04-19T02:04:37;99804.00;;;8.86;100.00
41264;BME280;26998;48.714;9.414;2023-04-19T02:07:04;99806.66;;;8.78;100.00
41264;BME280;26998;48.714;9.414;2023-04-19T02:09:34;99802.69;;;8.82;100.00
41264;BME280;26998;48.714;9.414;2023-04-19T02:12:01;99801.84;;;8.82;100.00
41264;BME280;26998;48.714;9.414;2023-04-19T02:14:27;99798.50;;;8.79;100.00
41264;BME280;26998;48.714;9.414;2023-04-19T02:16:54;99800.16;;;8.81;100.00
41264;BME280;26998;48.714;9.414;2023-04-19T02:19:21;99798.81;;;8.85;100.00
41264;BME280;26998;48.714;9.414;2023-04-19T02:21:47;99795.19;;;8.86;100.00
41264;BME280;26998;48.714;9.414;2023-04-19T02:24:14;99786.84;;;8.97;100.00
41264;BME280;26998;48.714;9.414;2023-04-19T02:26:41;99784.03;;;8.82;100.00
41264;BME280;26998;48.714;9.414;2023-04-19T02:29:07;99786.19;;;8.78;100.00
41264;BME280;26998;48.714;9.414;2023-04-19T02:31:35;99795.16;;;8.77;100.00
41264;BME280;26998;48.714;9.414;2023-04-19T02:34:01;99777.31;;;8.78;100.00
41264;BME280;26998;48.714;9.414;2023-04-19T02:36:28;99791.50;;;8.87;100.00
41264;BME280;26998;48.714;9.414;2023-04-19T02:38:54;99756.84;;;8.87;100.00
41264;BME280;26998;48.714;9.414;2023-04-19T02:41:20;99771.00;;;8.71;100.00
41264;BME280;26998;48.714;9.414;2023-04-19T02:43:47;99799.78;;;8.59;100.00
41264;BME280;26998;48.714;9.414;2023-04-19T02:46:14;99813.09;;;8.59;100.00
41264;BME280;26998;48.714;9.414;2023-04-19T02:48:40;99811.78;;;8.63;100.00
41264;BME280;26998;48.714;9.414;2023-04-19T02:51:07;99794.28;;;8.61;100.00
41264;BME280;26998;48.714;9.414;2023-04-19T02:53:33;99796.28;;;8.59;100.00
41264;BME280;26998;48.714;9.414;2023-04-19T02:56:00;99804.25;;;8.50;100.00
41264;BME280;26998;48.714;9.414;2023-04-19T02:58:27;99812.72;;;8.46;100.00
41264;BME280;26998;48.714;9.414;2023-04-19T03:00:54;99809.38;;;8.44;100.00
41264;BME280;26998;48.714;9.414;2023-04-19T03:03:20;99817.53;;;8.42;100.00
41264;BME280;26998;48.714;9.414;2023-04-19T03:05:47;99818.97;;;8.37;100.00
41264;BME280;26998;48.714;9.414;2023-04-19T03:08:14;99818.97;;;8.37;100.00
41264;BME280;26998;48.714;9.414;2023-04-19T03:10:40;99832.75;;;8.24;100.00
41264;BME280;26998;48.714;9.414;2023-04-19T03:13:07;99852.19;;;8.16;100.00
41264;BME280;26998;48.714;9.414;2023-04-19T03:15:34;99860.00;;;8.18;100.00
41264;BME280;26998;48.714;9.414;2023-04-19T03:18:00;99868.94;;;8.08;100.00
41264;BME280;26998;48.714;9.414;2023-04-19T03:20:27;99873.03;;;7.95;100.00
41264;BME280;26998;48.714;9.414;2023-04-19T03:22:53;99892.47;;;7.95;100.00
41264;BME280;26998;48.714;9.414;2023-04-19T03:25:20;99904.09;;;7.94;100.00
41264;BME280;26998;48.714;9.414;2023-04-19T03:27:46;99901.63;;;7.93;100.00
41264;BME280;26998;48.714;9.414;2023-04-19T03:30:13;99894.31;;;7.95;100.00
41264;BME280;26998;48.714;9.414;2023-04-19T03:32:40;99893.25;;;7.87;100.00
41264;BME280;26998;48.714;9.414;2023-04-19T03:35:07;99901.19;;;7.79;100.00
41264;BME280;26998;48.714;9.414;2023-04-19T03:37:34;99910.22;;;7.86;100.00
41264;BME280;26998;48.714;9.414;2023-04-19T03:40:00;99885.22;;;7.79;100.00
41264;BME280;26998;48.714;9.414;2023-04-19T03:42:27;99899.66;;;7.77;100.00
41264;BME280;26998;48.714;9.414;2023-04-19T03:44:55;99896.41;;;7.65;100.00
41264;BME280;26998;48.714;9.414;2023-04-19T03:47:21;99923.31;;;7.62;100.00
41264;BME280;26998;48.714;9.414;2023-04-19T03:49:48;99928.09;;;7.58;100.00
41264;BME280;26998;48.714;9.414;2023-04-19T03:52:14;99927.19;;;7.50;100.00
41264;BME280;26998;48.714;9.414;2023-04-19T03:54:41;99944.88;;;7.41;100.00
41264;BME280;26998;48.714;9.414;2023-04-19T03:57:08;99964.09;;;7.35;100.00
41264;BME280;26998;48.714;9.414;2023-04-19T03:59:34;99971.41;;;7.33;100.00
41264;BME280;26998;48.714;9.414;2023-04-19T04:02:01;99979.69;;;7.30;100.00
41264;BME280;26998;48.714;9.414;2023-04-19T04:04:28;99987.56;;;7.22;100.00
41264;BME280;26998;48.714;9.414;2023-04-19T04:06:55;100001.03;;;7.20;100.00
41264;BME280;26998;48.714;9.414;2023-04-19T04:09:21;100021.31;;;7.21;100.00
41264;BME280;26998;48.714;9.414;2023-04-19T04:11:47;100004.88;;;7.35;100.00
41264;BME280;26998;48.714;9.414;2023-04-19T04:14:14;99992.00;;;7.31;100.00
41264;BME280;26998;48.714;9.414;2023-04-19T04:16:41;99986.06;;;7.37;100.00
41264;BME280;26998;48.714;9.414;2023-04-19T04:19:07;99989.94;;;7.25;100.00
41264;BME280;26998;48.714;9.414;2023-04-19T04:21:34;100007.19;;;7.21;100.00
41264;BME280;26998;48.714;9.414;2023-04-19T04:24:01;100012.25;;;7.14;100.00
41264;BME280;26998;48.714;9.414;2023-04-19T04:26:27;100033.22;;;7.17;100.00
41264;BME280;26998;48.714;9.414;2023-04-19T04:28:54;100028.75;;;7.17;100.00
41264;BME280;26998;48.714;9.414;2023-04-19T04:31:20;100025.91;;;7.19;100.00
41264;BME280;26998;48.714;9.414;2023-04-19T04:33:46;100016.69;;;7.23;100.00
41264;BME280;26998;48.714;9.414;2023-04-19T04:36:13;100014.75;;;7.15;100.00
41264;BME280;26998;48.714;9.414;2023-04-19T04:38:39;100023.31;;;7.09;100.00
41264;BME280;26998;48.714;9.414;2023-04-19T04:41:06;100031.75;;;7.05;100.00
41264;BME280;26998;48.714;9.414;2023-04-19T04:43:32;100041.38;;;7.06;100.00
41264;BME280;26998;48.714;9.414;2023-04-19T04:46:00;100041.53;;;7.04;100.00
41264;BME280;26998;48.714;9.414;2023-04-19T04:48:27;100044.34;;;7.03;100.00
41264;BME280;26998;48.714;9.414;2023-04-19T04:50:54;100053.00;;;7.05;100.00
41264;BME280;26998;48.714;9.414;2023-04-19T04:53:20;100056.50;;;7.05;100.00
41264;BME280;26998;48.714;9.414;2023-04-19T04:55:47;100050.72;;;7.10;100.00
41264;BME280;26998;48.714;9.414;2023-04-19T04:58:14;100033.81;;;7.11;100.00
41264;BME280;26998;48.714;9.414;2023-04-19T05:00:40;100036.06;;;7.33;100.00
41264;BME280;26998;48.714;9.414;2023-04-19T05:03:07;99983.06;;;7.50;100.00
41264;BME280;26998;48.714;9.414;2023-04-19T05:05:33;99963.06;;;7.46;100.00
41264;BME280;26998;48.714;9.414;2023-04-19T05:08:00;99966.44;;;7.48;100.00
41264;BME280;26998;48.714;9.414;2023-04-19T05:10:27;99976.59;;;7.52;100.00
41264;BME280;26998;48.714;9.414;2023-04-19T05:12:53;99976.13;;;7.57;100.00
41264;BME280;26998;48.714;9.414;2023-04-19T05:15:20;99973.03;;;7.61;100.00
41264;BME280;26998;48.714;9.414;2023-04-19T05:17:47;99968.41;;;7.63;100.00
41264;BME280;26998;48.714;9.414;2023-04-19T05:20:14;99970.00;;;7.74;100.00
41264;BME280;26998;48.714;9.414;2023-04-19T05:22:40;99956.47;;;7.85;100.00
41264;BME280;26998;48.714;9.414;2023-04-19T05:25:09;99932.19;;;7.89;100.00
41264;BME280;26998;48.714;9.414;2023-04-19T05:27:35;99913.25;;;7.92;100.00
41264;BME280;26998;48.714;9.414;2023-04-19T05:30:03;99895.72;;;8.07;100.00
41264;BME280;26998;48.714;9.414;2023-04-19T05:32:30;99886.47;;;8.19;100.00
41264;BME280;26998;48.714;9.414;2023-04-19T05:34:57;99872.88;;;8.30;100.00
41264;BME280;26998;48.714;9.414;2023-04-19T05:37:23;99836.28;;;8.32;100.00
41264;BME280;26998;48.714;9.414;2023-04-19T05:39:50;99846.25;;;8.30;100.00
41264;BME280;26998;48.714;9.414;2023-04-19T05:42:17;99780.66;;;8.64;100.00
41264;BME280;26998;48.714;9.414;2023-04-19T05:44:44;99780.06;;;8.44;100.00
41264;BME280;26998;48.714;9.414;2023-04-19T05:47:10;99777.44;;;8.52;100.00
41264;BME280;26998;48.714;9.414;2023-04-19T05:49:37;99763.47;;;8.58;100.00
41264;BME280;26998;48.714;9.414;2023-04-19T05:52:07;99777.63;;;8.50;100.00
41264;BME280;26998;48.714;9.414;2023-04-19T05:54:33;99790.06;;;8.42;100.00
41264;BME280;26998;48.714;9.414;2023-04-19T05:57:03;99777.81;;;8.65;100.00
41264;BME280;26998;48.714;9.414;2023-04-19T05:59:30;99764.81;;;8.54;100.00
41264;BME280;26998;48.714;9.414;2023-04-19T06:01:57;99764.44;;;8.49;100.00
41264;BME280;26998;48.714;9.414;2023-04-19T06:04:23;99762.47;;;8.59;100.00
41264;BME280;26998;48.714;9.414;2023-04-19T06:06:52;99745.34;;;8.78;100.00
41264;BME280;26998;48.714;9.414;2023-04-19T06:09:19;99747.38;;;8.76;100.00
41264;BME280;26998;48.714;9.414;2023-04-19T06:11:49;99748.19;;;8.93;100.00
41264;BME280;26998;48.714;9.414;2023-04-19T06:14:17;99720.19;;;8.97;100.00
41264;BME280;26998;48.714;9.414;2023-04-19T06:16:44;99703.03;;;8.99;100.00
41264;BME280;26998;48.714;9.414;2023-04-19T06:19:11;99691.22;;;9.10;100.00
41264;BME280;26998;48.714;9.414;2023-04-19T06:21:37;99672.88;;;8.99;100.00
41264;BME280;26998;48.714;9.414;2023-04-19T06:24:07;99684.53;;;9.14;100.00
41264;BME280;26998;48.714;9.414;2023-04-19T06:26:33;99691.69;;;9.22;100.00
41264;BME280;26998;48.714;9.414;2023-04-19T06:29:01;99667.53;;;9.32;100.00
41264;BME280;26998;48.714;9.414;2023-04-19T06:31:27;99662.13;;;9.48;100.00
41264;BME280;26998;48.714;9.414;2023-04-19T06:33:54;99643.47;;;9.40;100.00
41264;BME280;26998;48.714;9.414;2023-04-19T06:36:21;99642.09;;;9.52;100.00
41264;BME280;26998;48.714;9.414;2023-04-19T06:38:47;99630.06;;;9.56;100.00
41264;BME280;26998;48.714;9.414;2023-04-19T06:41:14;99621.72;;;9.59;100.00
41264;BME280;26998;48.714;9.414;2023-04-19T06:43:40;99600.66;;;9.73;100.00
41264;BME280;26998;48.714;9.414;2023-04-19T06:46:07;99578.63;;;9.70;100.00
41264;BME280;26998;48.714;9.414;2023-04-19T06:48:34;99579.75;;;9.45;100.00
41264;BME280;26998;48.714;9.414;2023-04-19T06:51:00;99588.78;;;9.44;100.00
41264;BME280;26998;48.714;9.414;2023-04-19T06:53:27;99590.72;;;9.50;100.00
41264;BME280;26998;48.714;9.414;2023-04-19T06:55:58;99586.38;;;9.57;100.00
41264;BME280;26998;48.714;9.414;2023-04-19T06:58:26;99565.88;;;9.49;100.00
41264;BME280;26998;48.714;9.414;2023-04-19T07:00:53;99565.06;;;9.49;100.00
41264;BME280;26998;48.714;9.414;2023-04-19T07:03:21;99525.50;;;9.84;100.00
41264;BME280;26998;48.714;9.414;2023-04-19T07:05:48;99521.84;;;9.85;100.00
41264;BME280;26998;48.714;9.414;2023-04-19T07:08:15;99503.28;;;9.91;100.00
41264;BME280;26998;48.714;9.414;2023-04-19T07:10:41;99492.47;;;9.85;100.00
41264;BME280;26998;48.714;9.414;2023-04-19T07:13:10;99467.59;;;10.30;100.00
41264;BME280;26998;48.714;9.414;2023-04-19T07:15:36;99449.66;;;10.16;100.00
41264;BME280;26998;48.714;9.414;2023-04-19T07:18:03;99414.38;;;10.44;100.00
41264;BME280;26998;48.714;9.414;2023-04-19T07:20:30;99429.94;;;10.55;100.00
41264;BME280;26998;48.714;9.414;2023-04-19T07:22:59;99372.75;;;11.00;100.00
41264;BME280;26998;48.714;9.414;2023-04-19T07:25:26;99378.84;;;10.79;100.00
41264;BME280;26998;48.714;9.414;2023-04-19T07:27:54;99371.94;;;10.85;100.00
41264;BME280;26998;48.714;9.414;2023-04-19T07:30:21;99387.75;;;10.50;100.00
41264;BME280;26998;48.714;9.414;2023-04-19T07:32:48;99378.25;;;10.62;100.00
41264;BME280;26998;48.714;9.414;2023-04-19T07:35:17;99355.84;;;10.63;100.00
41264;BME280;26998;48.714;9.414;2023-04-19T07:37:44;99358.28;;;10.95;100.00
41264;BME280;26998;48.714;9.414;2023-04-19T07:40:11;99345.09;;;11.15;100.00
41264;BME280;26998;48.714;9.414;2023-04-19T07:42:38;99320.41;;;11.34;100.00
41264;BME280;26998;48.714;9.414;2023-04-19T07:45:05;99298.25;;;11.19;100.00
41264;BME280;26998;48.714;9.414;2023-04-19T07:47:33;99305.03;;;11.43;100.00
41264;BME280;26998;48.714;9.414;2023-04-19T07:50:01;99283.28;;;11.80;100.00
41264;BME280;26998;48.714;9.414;2023-04-19T07:52:30;99278.03;;;11.87;100.00
41264;BME280;26998;48.714;9.414;2023-04-19T07:54:56;99277.53;;;11.84;100.00
41264;BME280;26998;48.714;9.414;2023-04-19T07:57:22;99215.25;;;12.44;100.00
41264;BME280;26998;48.714;9.414;2023-04-19T07:59:49;99243.53;;;11.49;100.00
41264;BME280;26998;48.714;9.414;2023-04-19T08:02:16;99296.50;;;11.32;100.00
41264;BME280;26998;48.714;9.414;2023-04-19T08:04:43;99288.63;;;11.52;100.00
41264;BME280;26998;48.714;9.414;2023-04-19T08:07:10;99287.28;;;11.35;100.00
41264;BME280;26998;48.714;9.414;2023-04-19T08:09:37;99285.38;;;11.07;100.00
41264;BME280;26998;48.714;9.414;2023-04-19T08:12:04;99316.47;;;10.72;100.00
41264;BME280;26998;48.714;9.414;2023-04-19T08:14:30;99319.19;;;10.94;100.00
41264;BME280;26998;48.714;9.414;2023-04-19T08:17:09;99305.25;;;11.20;100.00
41264;BME280;26998;48.714;9.414;2023-04-19T08:19:52;99289.97;;;11.14;100.00
41264;BME280;26998;48.714;9.414;2023-04-19T08:22:20;99278.31;;;11.00;100.00
41264;BME280;26998;48.714;9.414;2023-04-19T08:24:48;99280.47;;;11.11;100.00
41264;BME280;26998;48.714;9.414;2023-04-19T08:27:15;99254.34;;;11.63;100.00
41264;BME280;26998;48.714;9.414;2023-04-19T08:29:42;99235.94;;;11.25;100.00
41264;BME280;26998;48.714;9.414;2023-04-19T08:32:11;99262.81;;;10.95;100.00
41264;BME280;26998;48.714;9.414;2023-04-19T08:34:38;99282.41;;;10.81;100.00
41264;BME280;26998;48.714;9.414;2023-04-19T08:37:05;99276.97;;;10.74;100.00
41264;BME280;26998;48.714;9.414;2023-04-19T08:39:33;99283.78;;;10.92;100.00
41264;BME280;26998;48.714;9.414;2023-04-19T08:42:05;99290.16;;;11.12;100.00
41264;BME280;26998;48.714;9.414;2023-04-19T08:44:55;99262.94;;;11.08;100.00
41264;BME280;26998;48.714;9.414;2023-04-19T08:47:42;99248.47;;;11.24;100.00
41264;BME280;26998;48.714;9.414;2023-04-19T08:50:27;99258.53;;;11.44;100.00
41264;BME280;26998;48.714;9.414;2023-04-19T08:53:21;99258.28;;;11.17;100.00
41264;BME280;26998;48.714;9.414;2023-04-19T08:55:51;99254.41;;;10.98;100.00
41264;BME280;26998;48.714;9.414;2023-04-19T08:58:21;99254.63;;;10.97;100.00
41264;BME280;26998;48.714;9.414;2023-04-19T09:01:06;99255.66;;;10.81;100.00
41264;BME280;26998;48.714;9.414;2023-04-19T09:03:34;99249.81;;;10.71;100.00
41264;BME280;26998;48.714;9.414;2023-04-19T09:06:18;99260.56;;;10.77;100.00
41264;BME280;26998;48.714;9.414;2023-04-19T09:08:45;99246.06;;;10.86;100.00
41264;BME280;26998;48.714;9.414;2023-04-19T09:11:11;99242.69;;;11.21;100.00
41264;BME280;26998;48.714;9.414;2023-04-19T09:13:39;99232.38;;;11.46;100.00
41264;BME280;26998;48.714;9.414;2023-04-19T09:16:06;99209.63;;;11.28;100.00
41264;BME280;26998;48.714;9.414;2023-04-19T09:18:42;99198.56;;;11.66;100.00
41264;BME280;26998;48.714;9.414;2023-04-19T09:21:29;99186.75;;;11.54;100.00
41264;BME280;26998;48.714;9.414;2023-04-19T09:23:59;99193.84;;;11.68;100.00
41264;BME280;26998;48.714;9.414;2023-04-19T09:26:29;99176.19;;;11.46;100.00
41264;BME280;26998;48.714;9.414;2023-04-19T09:29:00;99175.06;;;11.96;100.00
41264;BME280;26998;48.714;9.414;2023-04-19T09:31:28;99146.50;;;12.23;100.00
41264;BME280;26998;48.714;9.414;2023-04-19T09:34:19;99142.06;;;12.51;100.00
41264;BME280;26998;48.714;9.414;2023-04-19T09:36:45;99123.72;;;13.14;100.00
41264;BME280;26998;48.714;9.414;2023-04-19T09:39:12;99114.22;;;12.91;100.00
41264;BME280;26998;48.714;9.414;2023-04-19T09:41:52;99106.59;;;13.08;100.00
41264;BME280;26998;48.714;9.414;2023-04-19T09:44:20;99098.13;;;13.18;100.00
41264;BME280;26998;48.714;9.414;2023-04-19T09:46:51;99086.72;;;13.56;100.00
41264;BME280;26998;48.714;9.414;2023-04-19T09:49:21;99076.22;;;13.14;100.00
41264;BME280;26998;48.714;9.414;2023-04-19T09:52:07;99078.72;;;13.29;100.00
41264;BME280;26998;48.714;9.414;2023-04-19T09:54:36;99075.63;;;13.19;100.00
41264;BME280;26998;48.714;9.414;2023-04-19T09:57:03;99075.00;;;13.37;100.00
41264;BME280;26998;48.714;9.414;2023-04-19T09:59:30;99072.75;;;13.01;100.00
41264;BME280;26998;48.714;9.414;2023-04-19T10:01:58;99074.81;;;12.39;100.00
41264;BME280;26998;48.714;9.414;2023-04-19T10:04:27;99082.06;;;12.78;100.00
41264;BME280;26998;48.714;9.414;2023-04-19T10:07:15;99080.47;;;11.89;100.00
41264;BME280;26998;48.714;9.414;2023-04-19T10:09:57;99089.41;;;12.16;100.00
41264;BME280;26998;48.714;9.414;2023-04-19T10:12:48;99087.38;;;12.25;100.00
41264;BME280;26998;48.714;9.414;2023-04-19T10:15:36;99076.69;;;12.71;100.00
41264;BME280;26998;48.714;9.414;2023-04-19T10:18:07;99072.78;;;12.87;100.00
41264;BME280;26998;48.714;9.414;2023-04-19T10:23:16;99066.13;;;13.16;100.00
41264;BME280;26998;48.714;9.414;2023-04-19T10:25:46;99056.84;;;13.26;100.00
41264;BME280;26998;48.714;9.414;2023-04-19T10:28:14;99058.13;;;12.90;100.00
41264;BME280;26998;48.714;9.414;2023-04-19T10:31:03;99056.25;;;12.90;100.00
41264;BME280;26998;48.714;9.414;2023-04-19T10:33:34;99061.41;;;12.39;100.00
41264;BME280;26998;48.714;9.414;2023-04-19T10:36:01;99060.78;;;12.30;100.00
41264;BME280;26998;48.714;9.414;2023-04-19T10:38:42;99069.06;;;12.62;100.00
41264;BME280;26998;48.714;9.414;2023-04-19T10:41:09;99068.25;;;12.68;100.00
41264;BME280;26998;48.714;9.414;2023-04-19T10:43:37;99064.13;;;12.65;100.00
41264;BME280;26998;48.714;9.414;2023-04-19T10:48:39;99063.06;;;12.80;100.00
41264;BME280;26998;48.714;9.414;2023-04-19T10:51:15;99050.25;;;13.02;100.00
41264;BME280;26998;48.714;9.414;2023-04-19T10:53:43;99048.63;;;12.61;100.00
41264;BME280;26998;48.714;9.414;2023-04-19T10:56:10;99058.94;;;12.44;100.00
41264;BME280;26998;48.714;9.414;2023-04-19T11:04:03;99042.00;;;13.03;100.00
41264;BME280;26998;48.714;9.414;2023-04-19T11:06:31;99038.53;;;12.43;100.00
41264;BME280;26998;48.714;9.414;2023-04-19T11:08:58;99034.78;;;12.77;100.00
41264;BME280;26998;48.714;9.414;2023-04-19T11:11:25;99020.59;;;12.63;100.00
41264;BME280;26998;48.714;9.414;2023-04-19T11:13:54;99024.72;;;12.53;100.00
41264;BME280;26998;48.714;9.414;2023-04-19T11:16:21;99015.81;;;12.85;100.00
41264;BME280;26998;48.714;9.414;2023-04-19T11:19:07;99025.72;;;12.91;100.00
41264;BME280;26998;48.714;9.414;2023-04-19T11:21:39;99016.47;;;12.47;100.00
41264;BME280;26998;48.714;9.414;2023-04-19T11:24:09;99028.59;;;12.30;100.00
41264;BME280;26998;48.714;9.414;2023-04-19T11:26:37;99020.16;;;12.27;100.00
41264;BME280;26998;48.714;9.414;2023-04-19T11:29:03;99024.88;;;12.05;100.00
41264;BME280;26998;48.714;9.414;2023-04-19T11:31:33;99022.81;;;12.07;100.00
41264;BME280;26998;48.714;9.414;2023-04-19T11:34:01;99029.22;;;12.19;100.00
41264;BME280;26998;48.714;9.414;2023-04-19T11:36:28;99026.97;;;12.29;100.00
41264;BME280;26998;48.714;9.414;2023-04-19T11:38:54;99029.66;;;12.36;100.00
41264;BME280;26998;48.714;9.414;2023-04-19T11:41:21;99046.28;;;11.91;100.00
41264;BME280;26998;48.714;9.414;2023-04-19T11:43:49;99047.34;;;12.04;100.00
41264;BME280;26998;48.714;9.414;2023-04-19T11:46:17;99048.69;;;11.79;100.00
41264;BME280;26998;48.714;9.414;2023-04-19T11:48:53;99077.38;;;11.44;100.00
41264;BME280;26998;48.714;9.414;2023-04-19T11:51:20;99107.28;;;11.20;100.00
41264;BME280;26998;48.714;9.414;2023-04-19T11:53:47;99130.34;;;10.99;100.00
41264;BME280;26998;48.714;9.414;2023-04-19T11:56:14;99152.59;;;11.00;100.00
41264;BME280;26998;48.714;9.414;2023-04-19T12:01:12;99183.94;;;11.06;100.00
41264;BME280;26998;48.714;9.414;2023-04-19T12:03:43;99180.50;;;11.12;100.00
41264;BME280;26998;48.714;9.414;2023-04-19T12:06:16;99195.84;;;11.03;100.00
41264;BME280;26998;48.714;9.414;2023-04-19T12:08:47;99233.44;;;10.80;100.00
41264;BME280;26998;48.714;9.414;2023-04-19T12:11:17;99277.53;;;10.84;100.00
41264;BME280;26998;48.714;9.414;2023-04-19T12:13:44;99283.56;;;10.72;100.00
41264;BME280;26998;48.714;9.414;2023-04-19T12:16:12;99352.69;;;10.30;100.00
41264;BME280;26998;48.714;9.414;2023-04-19T12:18:50;99426.78;;;10.36;100.00
41264;BME280;26998;48.714;9.414;2023-04-19T12:21:30;99470.44;;;10.29;100.00
41264;BME280;26998;48.714;9.414;2023-04-19T12:23:59;99489.19;;;10.21;100.00
41264;BME280;26998;48.714;9.414;2023-04-19T12:26:27;99529.38;;;10.04;100.00
41264;BME280;26998;48.714;9.414;2023-04-19T12:28:54;99584.44;;;10.05;100.00
41264;BME280;26998;48.714;9.414;2023-04-19T12:31:21;99646.53;;;10.07;100.00
41264;BME280;26998;48.714;9.414;2023-04-19T12:33:49;99653.59;;;10.00;100.00
41264;BME280;26998;48.714;9.414;2023-04-19T12:36:16;99639.66;;;10.13;100.00
41264;BME280;26998;48.714;9.414;2023-04-19T12:38:43;99653.03;;;10.13;100.00
41264;BME280;26998;48.714;9.414;2023-04-19T12:41:09;99668.56;;;10.09;100.00
41264;BME280;26998;48.714;9.414;2023-04-19T12:43:36;99675.16;;;10.30;100.00
41264;BME280;26998;48.714;9.414;2023-04-19T12:46:03;99606.50;;;9.99;100.00
41264;BME280;26998;48.714;9.414;2023-04-19T12:48:30;99600.13;;;10.08;100.00
41264;BME280;26998;48.714;9.414;2023-04-19T12:50:57;99633.59;;;10.27;100.00
41264;BME280;26998;48.714;9.414;2023-04-19T12:53:25;99616.97;;;10.40;100.00
41264;BME280;26998;48.714;9.414;2023-04-19T12:55:52;99600.31;;;10.53;100.00
41264;BME280;26998;48.714;9.414;2023-04-19T12:58:19;99570.28;;;10.51;100.00
41264;BME280;26998;48.714;9.414;2023-04-19T13:00:46;99563.66;;;10.47;100.00
41264;BME280;26998;48.714;9.414;2023-04-19T13:03:12;99560.69;;;10.42;100.00
41264;BME280;26998;48.714;9.414;2023-04-19T13:05:40;99562.44;;;10.03;100.00
41264;BME280;26998;48.714;9.414;2023-04-19T13:08:07;99576.28;;;9.76;100.00
41264;BME280;26998;48.714;9.414;2023-04-19T13:10:33;99589.56;;;9.84;100.00
41264;BME280;26998;48.714;9.414;2023-04-19T13:13:00;99591.19;;;9.62;100.00
41264;BME280;26998;48.714;9.414;2023-04-19T13:15:27;99612.84;;;9.75;100.00